createdAt,value
2023-09-28T00:00:47.552Z,4.78
2023-09-28T00:05:48.964Z,5.53
2023-09-28T00:10:50.497Z,4.90
2023-09-28T00:15:51.903Z,4.55
2023-09-28T00:20:53.325Z,4.32
2023-09-28T00:25:54.870Z,5.53
2023-09-28T00:30:56.369Z,5.10
2023-09-28T00:35:57.967Z,5.45
2023-09-28T00:40:59.449Z,5.20
2023-09-28T00:46:01.605Z,5.22
2023-09-28T00:51:05.077Z,5.13
2023-09-28T00:56:08.839Z,5.38
2023-09-28T01:01:11.664Z,5.82
2023-09-28T01:06:13.881Z,4.75
2023-09-28T01:11:15.270Z,5.80
2023-09-28T01:16:16.688Z,5.15
2023-09-28T01:21:20.003Z,5.50
2023-09-28T01:26:21.426Z,6.25
2023-09-28T01:31:22.942Z,7.15
2023-09-28T01:36:24.339Z,6.68
2023-09-28T01:41:25.770Z,5.72
2023-09-28T01:46:27.169Z,5.15
2023-09-28T01:51:28.702Z,5.35
2023-09-28T01:56:30.135Z,5.40
2023-09-28T02:01:32.983Z,6.15
2023-09-28T02:06:34.518Z,5.28
2023-09-28T02:11:35.937Z,5.95
2023-09-28T02:16:37.328Z,4.93
2023-09-28T02:21:38.792Z,5.28
2023-09-28T02:26:40.263Z,5.38
2023-09-28T02:31:42.622Z,5.47
2023-09-28T02:36:44.231Z,5.32
2023-09-28T02:41:45.647Z,5.05
2023-09-28T02:46:47.050Z,5.13
2023-09-28T02:51:49.250Z,12.02
2023-09-28T02:56:51.226Z,6.90
2023-09-28T03:01:53.232Z,6.05
2023-09-28T03:06:54.908Z,6.00
2023-09-28T03:11:56.469Z,6.15
2023-09-28T03:16:57.993Z,6.05
2023-09-28T03:21:59.915Z,6.88
2023-09-28T03:27:10.002Z,6.93
2023-09-28T03:32:12.465Z,7.00
2023-09-28T03:37:19.747Z,7.05
2023-09-28T03:42:21.129Z,7.95
2023-09-28T03:47:22.513Z,7.90
2023-09-28T03:52:23.893Z,8.48
2023-09-28T03:57:25.267Z,9.45
2023-09-28T04:02:28.272Z,8.50
2023-09-28T04:07:30.188Z,9.18
2023-09-28T04:12:31.622Z,8.65
2023-09-28T04:17:35.584Z,8.07
2023-09-28T04:22:37.332Z,8.60
2023-09-28T04:27:39.593Z,8.35
2023-09-28T04:32:41.139Z,9.25
2023-09-28T04:37:42.789Z,9.02
2023-09-28T04:42:44.249Z,8.65
2023-09-28T04:47:45.698Z,8.48
2023-09-28T04:52:47.244Z,10.07
2023-09-28T04:57:48.674Z,8.05
2023-09-28T05:02:50.651Z,7.90
2023-09-28T05:07:53.146Z,8.05
2023-09-28T05:12:55.071Z,7.55
2023-09-28T05:17:56.765Z,8.05
2023-09-28T05:22:58.345Z,8.52
2023-09-28T05:27:59.948Z,7.68
2023-09-28T05:33:01.377Z,9.80
2023-09-28T05:38:03.450Z,7.47
2023-09-28T05:43:04.833Z,8.85
2023-09-28T05:48:06.619Z,7.60
2023-09-28T05:53:08.114Z,7.82
2023-09-28T05:58:09.607Z,8.38
2023-09-28T06:03:11.032Z,9.15
2023-09-28T06:08:13.002Z,8.57
2023-09-28T06:13:14.375Z,8.70
2023-09-28T06:18:15.721Z,8.60
2023-09-28T06:23:18.152Z,9.02
2023-09-28T06:28:20.066Z,10.50
2023-09-28T06:33:27.573Z,9.18
2023-09-28T06:38:28.974Z,8.90
2023-09-28T06:43:30.880Z,9.05
2023-09-28T06:48:34.381Z,7.95
2023-09-28T06:53:36.322Z,10.15
2023-09-28T06:58:37.730Z,10.43
2023-09-28T07:03:39.179Z,10.18
2023-09-28T07:08:40.582Z,9.77
2023-09-28T07:13:42.158Z,9.98
2023-09-28T07:18:43.727Z,10.30
2023-09-28T07:23:45.210Z,9.95
2023-09-28T07:28:46.882Z,10.07
2023-09-28T07:33:49.517Z,9.93
2023-09-28T07:38:51.365Z,11.10
2023-09-28T07:43:53.036Z,11.23
2023-09-28T07:48:57.311Z,10.85
2023-09-28T07:53:58.675Z,10.07
2023-09-28T07:59:00.908Z,9.57
2023-09-28T08:04:02.441Z,9.13
2023-09-28T08:09:04.118Z,10.57
2023-09-28T08:14:06.449Z,10.18
2023-09-28T08:19:07.889Z,9.88
2023-09-28T08:24:11.312Z,10.30
2023-09-28T08:29:13.641Z,9.55
2023-09-28T08:34:19.304Z,8.30
2023-09-28T08:39:26.668Z,9.15
2023-09-28T08:44:31.123Z,8.88
2023-09-28T08:49:35.543Z,9.05
2023-09-28T08:54:37.687Z,8.20
2023-09-28T08:59:40.539Z,7.68
2023-09-28T09:04:43.553Z,7.72
2023-09-28T09:09:47.482Z,7.00
2023-09-28T09:14:49.101Z,6.82
2023-09-28T09:19:51.065Z,6.75
2023-09-28T09:24:56.476Z,6.38
2023-09-28T09:30:01.517Z,6.35
2023-09-28T09:35:04.758Z,4.95
2023-09-28T09:40:13.667Z,4.53
2023-09-28T09:45:15.143Z,4.22
2023-09-28T09:50:18.846Z,5.18
2023-09-28T09:55:21.354Z,4.45
2023-09-28T10:00:24.304Z,4.60
2023-09-28T10:05:28.536Z,4.15
2023-09-28T10:10:31.493Z,3.72
2023-09-28T10:15:34.595Z,3.80
2023-09-28T10:20:37.153Z,3.85
2023-09-28T10:25:54.476Z,4.38
2023-09-28T10:31:08.923Z,3.28
2023-09-28T10:36:14.032Z,3.28
2023-09-28T10:41:18.113Z,3.20
2023-09-28T10:46:19.770Z,2.75
2023-09-28T10:51:21.162Z,2.83
2023-09-28T10:56:22.625Z,2.25
2023-09-28T11:01:24.031Z,2.33
2023-09-28T11:06:25.661Z,2.28
2023-09-28T11:11:27.586Z,2.17
2023-09-28T11:16:29.169Z,1.92
2023-09-28T11:21:31.929Z,1.70
2023-09-28T11:26:34.823Z,1.42
2023-09-28T11:31:38.844Z,1.40
2023-09-28T11:36:41.712Z,1.40
2023-09-28T11:42:00.362Z,1.17
2023-09-28T11:47:03.067Z,1.00
2023-09-28T11:52:05.190Z,1.27
2023-09-28T11:57:08.994Z,1.50
2023-09-28T12:02:10.632Z,1.40
2023-09-28T12:07:12.562Z,1.58
2023-09-28T12:12:13.967Z,1.13
2023-09-28T12:17:16.005Z,1.35
2023-09-28T12:22:17.987Z,1.70
2023-09-28T12:27:20.516Z,1.20
2023-09-28T12:32:21.978Z,1.83
2023-09-28T12:37:23.441Z,1.15
2023-09-28T12:42:25.741Z,1.30
2023-09-28T12:47:27.311Z,1.00
2023-09-28T12:52:29.776Z,1.20
2023-09-28T12:57:31.275Z,1.05
2023-09-28T13:02:32.779Z,1.50
2023-09-28T13:07:35.292Z,1.08
2023-09-28T13:12:36.868Z,1.30
2023-09-28T13:17:39.496Z,0.90
2023-09-28T13:22:41.036Z,1.17
2023-09-28T13:27:42.452Z,1.90
2023-09-28T13:32:43.879Z,0.85
2023-09-28T13:37:46.029Z,0.98
2023-09-28T13:42:47.521Z,0.95
2023-09-28T13:47:49.038Z,0.82
2023-09-28T13:52:50.951Z,0.95
2023-09-28T13:57:52.475Z,1.25
2023-09-28T14:02:55.642Z,1.10
2023-09-28T14:07:57.662Z,1.42
2023-09-28T14:12:59.413Z,1.30
2023-09-28T14:18:00.854Z,1.52
2023-09-28T14:23:02.329Z,0.90
2023-09-28T14:28:04.132Z,1.08
2023-09-28T14:33:05.731Z,0.80
2023-09-28T14:38:07.518Z,0.95
2023-09-28T14:43:09.048Z,0.80
2023-09-28T14:48:10.574Z,0.95
2023-09-28T14:53:13.789Z,0.98
2023-09-28T14:58:15.197Z,0.85
2023-09-28T15:03:16.795Z,0.75
2023-09-28T15:08:18.714Z,0.68
2023-09-28T15:13:20.250Z,1.00
2023-09-28T15:18:21.859Z,0.80
2023-09-28T15:23:23.345Z,1.00
2023-09-28T15:28:24.774Z,0.90
2023-09-28T15:33:26.633Z,1.00
2023-09-28T15:38:28.430Z,1.00
2023-09-28T15:43:33.577Z,0.85
2023-09-28T15:48:34.966Z,0.97
2023-09-28T15:53:36.451Z,1.30
2023-09-28T15:58:37.958Z,1.40
2023-09-28T16:03:39.922Z,1.30
2023-09-28T16:08:42.090Z,2.15
2023-09-28T16:13:43.714Z,0.93
2023-09-28T16:18:45.335Z,0.95
2023-09-28T16:23:46.825Z,0.95
2023-09-28T16:28:48.261Z,1.10
2023-09-28T16:33:49.743Z,1.65
2023-09-28T16:38:51.364Z,1.92
2023-09-28T16:43:53.694Z,2.17
2023-09-28T16:48:55.319Z,2.40
2023-09-28T16:53:56.991Z,2.58
2023-09-28T16:58:58.621Z,3.13
2023-09-28T17:04:00.177Z,1.65
2023-09-28T17:09:01.608Z,1.30
2023-09-28T17:14:03.126Z,2.10
2023-09-28T17:19:05.528Z,1.83
2023-09-28T17:24:07.432Z,3.33
2023-09-28T17:29:09.049Z,3.10
2023-09-28T17:34:11.502Z,2.20
2023-09-28T17:39:12.938Z,2.38
2023-09-28T17:44:14.409Z,2.42
2023-09-28T17:49:16.219Z,2.85
2023-09-28T17:54:17.636Z,2.90
2023-09-28T17:59:19.224Z,2.35
2023-09-28T18:04:20.720Z,2.28
2023-09-28T18:09:22.205Z,1.85
2023-09-28T18:14:23.835Z,2.58
2023-09-28T18:19:25.318Z,2.13
2023-09-28T18:24:26.721Z,3.85
2023-09-28T18:29:28.182Z,3.10
2023-09-28T18:34:32.269Z,2.35
2023-09-28T18:39:34.689Z,3.17
2023-09-28T18:44:37.332Z,2.72
2023-09-28T18:49:38.869Z,3.00
2023-09-28T18:54:42.841Z,3.08
2023-09-28T18:59:45.208Z,3.65
2023-09-28T19:04:46.865Z,2.78
2023-09-28T19:09:49.384Z,2.67
2023-09-28T19:14:50.843Z,2.60
2023-09-28T19:19:54.069Z,2.50
2023-09-28T19:24:55.539Z,2.70
2023-09-28T19:29:57.358Z,3.58
2023-09-28T19:34:58.822Z,3.30
2023-09-28T19:40:00.220Z,3.22
2023-09-28T19:45:01.686Z,2.85
2023-09-28T19:50:03.336Z,3.00
2023-09-28T19:55:05.097Z,3.40
2023-09-28T20:00:08.722Z,3.58
2023-09-28T20:05:12.014Z,4.18
2023-09-28T20:10:13.753Z,3.45
2023-09-28T20:15:15.277Z,4.22
2023-09-28T20:20:16.815Z,3.65
2023-09-28T20:25:18.431Z,3.67
2023-09-28T20:30:19.852Z,3.72
2023-09-28T20:35:21.400Z,3.72
2023-09-28T20:40:22.818Z,3.20
2023-09-28T20:45:24.212Z,4.18
2023-09-28T20:50:25.757Z,3.78
2023-09-28T20:55:27.183Z,3.75
2023-09-28T21:00:28.596Z,3.38
2023-09-28T21:05:31.390Z,3.50
2023-09-28T21:10:32.808Z,3.10
2023-09-28T21:15:34.224Z,3.13
2023-09-28T21:20:35.738Z,3.17
2023-09-28T21:25:37.334Z,3.70
2023-09-28T21:30:38.726Z,3.03
2023-09-28T21:35:40.704Z,2.55
2023-09-28T21:40:42.233Z,3.13
2023-09-28T21:45:43.785Z,3.25
2023-09-28T21:50:45.211Z,3.45
2023-09-28T21:55:46.691Z,3.10
2023-09-28T22:00:48.134Z,2.85
2023-09-28T22:05:53.586Z,2.88
2023-09-28T22:10:55.131Z,3.13
2023-09-28T22:15:56.634Z,3.42
2023-09-28T22:20:58.220Z,3.05
2023-09-28T22:25:59.687Z,3.58
2023-09-28T22:31:01.350Z,3.30
2023-09-28T22:36:02.893Z,3.25
2023-09-28T22:41:04.797Z,3.20
2023-09-28T22:46:06.594Z,3.10
2023-09-28T22:51:08.016Z,3.25
2023-09-28T22:56:09.397Z,3.38
2023-09-28T23:01:10.794Z,3.22
2023-09-28T23:06:13.084Z,3.00
2023-09-28T23:11:17.411Z,2.63
2023-09-28T23:16:19.024Z,3.35
2023-09-28T23:21:20.482Z,3.28
2023-09-28T23:26:24.385Z,3.15
2023-09-28T23:31:27.610Z,3.47
2023-09-28T23:36:29.017Z,3.45
2023-09-28T23:41:30.412Z,3.38
2023-09-28T23:46:31.797Z,3.05
2023-09-28T23:51:35.038Z,3.03
2023-09-28T23:56:40.943Z,3.40
